createdAt,value
2023-12-14T00:01:53.134Z,12.70
2023-12-14T00:04:22.669Z,12.70
2023-12-14T00:06:52.229Z,12.80
2023-12-14T00:09:19.183Z,12.70
2023-12-14T00:11:48.726Z,12.70
2023-12-14T00:14:15.683Z,12.70
2023-12-14T00:16:42.624Z,12.70
2023-12-14T00:19:11.887Z,12.70
2023-12-14T00:21:38.797Z,12.70
2023-12-14T00:24:06.095Z,12.70
2023-12-14T00:26:35.488Z,12.70
2023-12-14T00:29:02.817Z,12.70
2023-12-14T00:31:30.286Z,12.70
2023-12-14T00:33:57.296Z,12.70
2023-12-14T00:36:24.225Z,12.70
2023-12-14T00:38:53.708Z,12.70
2023-12-14T00:41:20.616Z,12.70
2023-12-14T00:43:47.623Z,12.70
2023-12-14T00:46:14.565Z,12.70
2023-12-14T00:48:44.910Z,12.70
2023-12-14T00:51:11.921Z,12.70
2023-12-14T00:53:38.888Z,12.70
2023-12-14T00:56:11.134Z,12.70
2023-12-14T00:58:38.319Z,12.60
2023-12-14T01:01:07.982Z,12.60
2023-12-14T01:03:34.933Z,12.60
2023-12-14T01:06:04.322Z,12.60
2023-12-14T01:08:31.294Z,12.60
2023-12-14T01:10:58.307Z,12.60
2023-12-14T01:13:25.296Z,12.60
2023-12-14T01:15:54.290Z,12.60
2023-12-14T01:18:21.398Z,12.60
2023-12-14T01:20:48.648Z,12.60
2023-12-14T01:23:17.773Z,12.60
2023-12-14T01:25:44.785Z,12.60
2023-12-14T01:28:11.815Z,12.60
2023-12-14T01:30:38.815Z,12.60
2023-12-14T01:33:08.253Z,12.60
2023-12-14T01:35:35.208Z,12.60
2023-12-14T01:38:02.228Z,12.60
2023-12-14T01:40:31.405Z,12.60
2023-12-14T01:43:09.667Z,12.60
2023-12-14T01:45:36.628Z,12.60
2023-12-14T01:48:03.742Z,12.60
2023-12-14T01:50:30.704Z,12.60
2023-12-14T01:52:57.702Z,12.60
2023-12-14T01:55:28.018Z,12.60
2023-12-14T01:57:57.365Z,12.60
2023-12-14T02:00:54.158Z,12.60
2023-12-14T02:03:21.156Z,12.60
2023-12-14T02:05:50.490Z,12.60
2023-12-14T02:08:17.421Z,12.60
2023-12-14T02:10:44.406Z,12.60
2023-12-14T02:13:13.632Z,12.60
2023-12-14T02:15:40.671Z,12.60
2023-12-14T02:18:07.708Z,12.60
2023-12-14T02:20:34.669Z,12.60
2023-12-14T02:23:02.989Z,12.60
2023-12-14T02:25:30.008Z,12.60
2023-12-14T02:27:57.301Z,12.60
2023-12-14T02:30:24.216Z,12.60
2023-12-14T02:32:51.169Z,12.60
2023-12-14T02:35:23.757Z,12.60
2023-12-14T02:37:53.948Z,12.60
2023-12-14T02:40:23.491Z,12.60
2023-12-14T02:42:54.945Z,12.50
2023-12-14T02:45:24.353Z,12.60
2023-12-14T02:47:55.365Z,12.60
2023-12-14T02:50:22.350Z,12.60
2023-12-14T02:52:49.283Z,12.50
2023-12-14T02:55:16.272Z,12.60
2023-12-14T02:57:43.247Z,12.50
2023-12-14T03:00:13.914Z,12.50
2023-12-14T03:02:40.840Z,12.50
2023-12-14T03:05:10.722Z,12.50
2023-12-14T03:07:40.150Z,12.50
2023-12-14T03:10:08.139Z,12.50
2023-12-14T03:12:38.424Z,12.50
2023-12-14T03:15:08.348Z,12.50
2023-12-14T03:17:36.146Z,12.50
2023-12-14T03:20:04.797Z,12.50
2023-12-14T03:22:34.386Z,12.50
2023-12-14T03:25:01.452Z,12.40
2023-12-14T03:27:28.364Z,12.40
2023-12-14T03:29:55.347Z,12.30
2023-12-14T03:32:29.329Z,12.20
2023-12-14T03:34:58.985Z,12.20
2023-12-14T03:37:25.949Z,12.20
2023-12-14T03:39:55.137Z,12.20
2023-12-14T03:42:22.514Z,12.20
2023-12-14T03:44:49.392Z,12.20
2023-12-14T03:47:18.565Z,12.20
2023-12-14T03:49:47.698Z,12.20
2023-12-14T03:52:14.554Z,12.20
2023-12-14T03:54:41.455Z,12.20
2023-12-14T03:57:11.202Z,12.20
2023-12-14T03:59:45.832Z,12.20
2023-12-14T04:02:15.046Z,12.10
2023-12-14T04:04:42.078Z,12.10
2023-12-14T04:07:11.437Z,12.10
2023-12-14T04:09:38.409Z,12.10
2023-12-14T04:12:12.439Z,12.10
2023-12-14T04:14:41.437Z,12.10
2023-12-14T04:17:10.953Z,12.10
2023-12-14T04:19:40.628Z,12.00
2023-12-14T04:22:07.613Z,12.00
2023-12-14T04:24:35.054Z,12.00
2023-12-14T04:27:02.074Z,12.00
2023-12-14T04:29:28.965Z,12.00
2023-12-14T04:31:58.044Z,12.00
2023-12-14T04:34:24.995Z,12.00
2023-12-14T04:36:58.539Z,12.00
2023-12-14T04:39:26.372Z,12.00
2023-12-14T04:41:54.201Z,12.00
2023-12-14T04:44:22.520Z,12.00
2023-12-14T04:46:52.394Z,12.00
2023-12-14T04:49:20.931Z,12.00
2023-12-14T04:51:50.340Z,11.90
2023-12-14T04:54:19.410Z,11.90
2023-12-14T04:56:51.561Z,11.90
2023-12-14T04:59:20.999Z,11.90
2023-12-14T05:01:50.498Z,11.90
2023-12-14T05:04:17.442Z,11.80
2023-12-14T05:06:46.671Z,11.90
2023-12-14T05:09:13.624Z,11.90
2023-12-14T05:11:44.086Z,11.90
2023-12-14T05:14:11.072Z,11.90
2023-12-14T05:16:40.555Z,11.90
2023-12-14T05:19:09.702Z,11.90
2023-12-14T05:21:36.937Z,11.90
2023-12-14T05:24:04.092Z,11.90
2023-12-14T05:26:33.326Z,11.80
2023-12-14T05:29:00.373Z,11.80
2023-12-14T05:31:29.776Z,11.70
2023-12-14T05:33:56.751Z,11.60
2023-12-14T05:36:26.099Z,11.50
2023-12-14T05:38:52.984Z,11.40
2023-12-14T05:41:22.106Z,11.40
2023-12-14T05:43:49.068Z,11.30
2023-12-14T05:46:25.744Z,11.30
2023-12-14T05:48:52.818Z,11.20
2023-12-14T05:51:36.468Z,11.20
2023-12-14T05:54:03.567Z,11.20
2023-12-14T05:56:30.596Z,11.20
2023-12-14T05:58:57.524Z,11.20
2023-12-14T06:01:25.924Z,11.30
2023-12-14T06:03:55.309Z,11.30
2023-12-14T06:06:27.371Z,11.40
2023-12-14T06:08:54.327Z,11.40
2023-12-14T06:11:21.520Z,11.40
2023-12-14T06:13:48.635Z,11.40
2023-12-14T06:16:15.516Z,11.50
2023-12-14T06:18:44.457Z,11.50
2023-12-14T06:21:13.634Z,11.50
2023-12-14T06:23:42.914Z,11.50
2023-12-14T06:26:12.414Z,11.50
2023-12-14T06:28:39.737Z,11.50
2023-12-14T06:31:06.811Z,11.50
2023-12-14T06:33:33.815Z,11.50
2023-12-14T06:36:05.917Z,11.50
2023-12-14T06:38:33.030Z,11.50
2023-12-14T06:40:59.950Z,11.50
2023-12-14T06:43:26.852Z,11.50
2023-12-14T06:45:53.717Z,11.50
2023-12-14T06:48:21.943Z,11.50
2023-12-14T06:50:49.132Z,11.50
2023-12-14T06:53:17.134Z,11.60
2023-12-14T06:55:44.262Z,11.60
2023-12-14T06:58:12.878Z,11.60
2023-12-14T07:00:44.796Z,11.60
2023-12-14T07:03:11.755Z,11.60
2023-12-14T07:05:42.604Z,11.70
2023-12-14T07:08:11.890Z,11.70
2023-12-14T07:10:38.812Z,11.80
2023-12-14T07:13:05.879Z,11.80
2023-12-14T07:15:33.262Z,11.80
2023-12-14T07:18:00.256Z,11.80
2023-12-14T07:20:27.262Z,11.90
2023-12-14T07:22:54.187Z,11.90
2023-12-14T07:25:23.620Z,11.90
2023-12-14T07:27:52.981Z,11.90
2023-12-14T07:30:24.230Z,12.00
2023-12-14T07:32:52.218Z,12.00
2023-12-14T07:35:19.183Z,12.00
2023-12-14T07:37:46.190Z,12.00
2023-12-14T07:40:13.294Z,12.00
2023-12-14T07:42:40.209Z,12.00
2023-12-14T07:45:10.787Z,12.00
2023-12-14T07:47:38.050Z,12.00
2023-12-14T07:50:05.853Z,12.00
2023-12-14T07:52:36.295Z,12.00
2023-12-14T07:55:04.279Z,12.10
2023-12-14T07:57:36.028Z,12.10
2023-12-14T08:00:05.036Z,12.10
2023-12-14T08:02:32.192Z,12.10
2023-12-14T08:04:59.253Z,12.10
2023-12-14T08:07:31.231Z,12.10
2023-12-14T08:10:04.126Z,12.10
2023-12-14T08:12:34.186Z,12.20
2023-12-14T08:15:03.439Z,12.20
2023-12-14T08:17:30.439Z,12.20
2023-12-14T08:19:57.338Z,12.20
2023-12-14T08:22:26.509Z,12.20
2023-12-14T08:24:53.434Z,12.20
2023-12-14T08:27:24.867Z,12.30
2023-12-14T08:29:51.802Z,12.30
2023-12-14T08:32:21.241Z,12.30
2023-12-14T08:34:50.690Z,12.30
2023-12-14T08:37:19.870Z,12.30
2023-12-14T08:39:49.264Z,12.30
2023-12-14T08:42:19.127Z,12.40
2023-12-14T08:44:46.029Z,12.40
2023-12-14T08:47:13.029Z,12.40
2023-12-14T08:49:42.068Z,12.40
2023-12-14T08:52:12.603Z,12.40
2023-12-14T08:54:44.604Z,12.40
2023-12-14T08:57:15.089Z,12.40
2023-12-14T08:59:44.916Z,12.40
2023-12-14T09:02:12.560Z,12.50
2023-12-14T09:04:41.822Z,12.50
2023-12-14T09:07:11.368Z,12.50
2023-12-14T09:09:40.569Z,12.50
2023-12-14T09:12:09.715Z,12.60
2023-12-14T09:14:37.152Z,12.60
2023-12-14T09:17:04.357Z,12.60
2023-12-14T09:19:33.876Z,12.60
2023-12-14T09:22:00.806Z,12.60
2023-12-14T09:24:30.130Z,12.70
2023-12-14T09:26:59.514Z,12.70
2023-12-14T09:29:26.544Z,12.60
2023-12-14T09:32:00.532Z,12.70
2023-12-14T09:34:27.532Z,12.70
2023-12-14T09:36:56.773Z,12.70
2023-12-14T09:39:29.231Z,12.70
2023-12-14T09:42:08.491Z,12.70
2023-12-14T09:44:39.152Z,12.70
2023-12-14T09:47:08.602Z,12.80
2023-12-14T09:49:37.009Z,12.80
2023-12-14T09:52:08.638Z,12.90
2023-12-14T09:54:37.882Z,12.80
2023-12-14T09:57:05.080Z,12.70
2023-12-14T09:59:34.560Z,12.90
2023-12-14T10:02:15.049Z,12.90
2023-12-14T10:04:48.002Z,12.90
2023-12-14T10:07:16.764Z,13.00
2023-12-14T10:09:43.848Z,13.00
2023-12-14T10:12:11.710Z,13.00
2023-12-14T10:14:40.868Z,13.10
2023-12-14T10:17:32.905Z,13.10
2023-12-14T10:20:05.505Z,13.10
2023-12-14T10:22:33.679Z,13.10
2023-12-14T10:25:02.834Z,13.20
2023-12-14T10:27:31.970Z,13.20
2023-12-14T10:29:58.913Z,13.20
2023-12-14T10:32:26.017Z,13.20
2023-12-14T10:34:53.021Z,13.20
2023-12-14T10:37:23.051Z,13.20
2023-12-14T10:39:52.105Z,13.30
2023-12-14T10:42:21.841Z,13.30
2023-12-14T10:45:11.724Z,13.30
2023-12-14T10:47:47.971Z,13.30
2023-12-14T10:50:20.800Z,13.30
2023-12-14T10:52:52.975Z,13.30
2023-12-14T10:55:42.781Z,13.30
2023-12-14T10:58:11.165Z,13.30
2023-12-14T11:00:41.733Z,13.30
2023-12-14T11:03:08.769Z,13.40
2023-12-14T11:05:37.393Z,13.40
2023-12-14T11:08:11.302Z,13.40
2023-12-14T11:10:44.937Z,13.40
2023-12-14T11:13:15.885Z,13.40
2023-12-14T11:15:53.526Z,13.40
2023-12-14T11:18:22.019Z,13.40
2023-12-14T11:21:00.072Z,13.40
2023-12-14T11:23:29.569Z,13.40
2023-12-14T11:26:12.757Z,13.40
2023-12-14T11:28:44.074Z,13.50
2023-12-14T11:31:15.084Z,13.50
2023-12-14T11:33:45.463Z,13.50
2023-12-14T11:36:13.800Z,13.50
2023-12-14T11:38:41.000Z,13.50
2023-12-14T11:41:10.937Z,13.50
2023-12-14T11:43:45.569Z,13.50
2023-12-14T11:46:16.710Z,13.50
2023-12-14T11:48:47.513Z,13.50
2023-12-14T11:51:14.675Z,13.50
2023-12-14T11:53:44.104Z,13.60
2023-12-14T11:56:11.162Z,13.60
2023-12-14T11:58:41.942Z,13.60
2023-12-14T12:01:20.441Z,13.60
2023-12-14T12:03:50.028Z,13.60
2023-12-14T12:06:31.594Z,13.60
2023-12-14T12:09:00.818Z,13.60
2023-12-14T12:11:30.967Z,13.40
2023-12-14T12:14:01.124Z,13.60
2023-12-14T12:16:35.982Z,13.60
2023-12-14T12:19:03.003Z,13.60
2023-12-14T12:21:29.919Z,13.70
2023-12-14T12:23:59.352Z,13.70
2023-12-14T12:26:26.209Z,13.70
2023-12-14T12:28:53.462Z,13.70
2023-12-14T12:31:23.008Z,13.70
2023-12-14T12:33:49.998Z,13.70
2023-12-14T12:36:16.879Z,13.70
2023-12-14T12:38:46.120Z,13.70
2023-12-14T12:41:13.156Z,13.70
2023-12-14T12:43:42.262Z,13.80
2023-12-14T12:46:11.766Z,13.80
2023-12-14T12:48:41.286Z,13.70
2023-12-14T12:51:10.588Z,13.80
2023-12-14T12:53:42.197Z,13.80
2023-12-14T12:56:14.151Z,13.80
2023-12-14T12:58:41.101Z,13.80
2023-12-14T13:01:08.137Z,13.80
2023-12-14T13:03:37.455Z,13.80
2023-12-14T13:06:07.130Z,13.80
2023-12-14T13:08:34.223Z,13.80
2023-12-14T13:11:01.285Z,13.80
2023-12-14T13:13:32.353Z,13.80
2023-12-14T13:15:59.346Z,13.80
2023-12-14T13:18:33.558Z,13.80
2023-12-14T13:21:02.726Z,13.80
2023-12-14T13:23:29.669Z,13.80
2023-12-14T13:25:56.752Z,13.80
2023-12-14T13:28:24.503Z,13.80
2023-12-14T13:30:51.402Z,13.80
2023-12-14T13:33:18.385Z,13.80
2023-12-14T13:35:45.412Z,13.80
2023-12-14T13:38:12.362Z,13.80
2023-12-14T13:40:41.815Z,13.80
2023-12-14T13:43:13.920Z,13.80
2023-12-14T13:45:55.075Z,13.80
2023-12-14T13:48:29.870Z,13.80
2023-12-14T13:50:59.781Z,13.80
2023-12-14T13:53:31.873Z,13.80
2023-12-14T13:55:59.371Z,13.80
2023-12-14T13:58:28.511Z,13.70
2023-12-14T14:00:55.572Z,13.70
2023-12-14T14:03:27.370Z,13.70
2023-12-14T14:05:56.873Z,13.70
2023-12-14T14:08:28.517Z,13.70
2023-12-14T14:10:55.435Z,13.70
2023-12-14T14:13:24.481Z,13.70
2023-12-14T14:15:53.795Z,13.70
2023-12-14T14:18:21.632Z,13.70
2023-12-14T14:20:48.749Z,13.70
2023-12-14T14:23:15.740Z,13.70
2023-12-14T14:25:42.757Z,13.70
2023-12-14T14:28:09.779Z,13.70
2023-12-14T14:30:39.751Z,13.70
2023-12-14T14:33:09.216Z,13.70
2023-12-14T14:35:38.250Z,13.70
2023-12-14T14:38:05.323Z,13.70
2023-12-14T14:40:32.287Z,13.70
2023-12-14T14:42:59.818Z,13.70
2023-12-14T14:45:29.303Z,13.70
2023-12-14T14:47:56.319Z,13.60
2023-12-14T14:50:25.923Z,13.60
2023-12-14T14:52:57.900Z,13.60
2023-12-14T14:55:29.318Z,13.60
2023-12-14T14:58:00.822Z,13.60
2023-12-14T15:00:29.986Z,13.60
2023-12-14T15:02:56.904Z,13.30
2023-12-14T15:05:24.002Z,13.50
2023-12-14T15:07:53.336Z,13.50
2023-12-14T15:10:20.293Z,13.50
2023-12-14T15:12:47.215Z,13.50
2023-12-14T15:15:16.674Z,13.50
2023-12-14T15:17:43.544Z,13.40
2023-12-14T15:20:11.043Z,13.40
2023-12-14T15:22:38.226Z,13.40
2023-12-14T15:25:06.198Z,13.40
2023-12-14T15:27:35.770Z,13.40
2023-12-14T15:30:07.327Z,13.40
2023-12-14T15:32:34.600Z,13.30
2023-12-14T15:35:04.115Z,13.20
2023-12-14T15:37:31.177Z,13.30
2023-12-14T15:39:58.110Z,13.30
2023-12-14T15:42:29.597Z,13.30
2023-12-14T15:44:56.474Z,13.30
2023-12-14T15:47:23.927Z,13.10
2023-12-14T15:49:50.986Z,13.30
2023-12-14T15:52:20.119Z,13.30
2023-12-14T15:54:49.101Z,13.30
2023-12-14T15:57:20.819Z,13.30
2023-12-14T15:59:47.710Z,13.30
2023-12-14T16:02:14.629Z,13.30
2023-12-14T16:04:41.629Z,13.30
2023-12-14T16:07:08.633Z,13.30
2023-12-14T16:09:35.566Z,13.30
2023-12-14T16:12:05.769Z,13.30
2023-12-14T16:14:32.821Z,13.30
2023-12-14T16:16:59.971Z,13.30
2023-12-14T16:19:32.114Z,13.30
2023-12-14T16:22:01.271Z,13.30
2023-12-14T16:24:30.407Z,13.30
2023-12-14T16:26:59.742Z,13.30
2023-12-14T16:29:33.781Z,13.40
2023-12-14T16:32:01.475Z,13.30
2023-12-14T16:34:31.467Z,13.30
2023-12-14T16:37:02.700Z,13.30
2023-12-14T16:39:36.565Z,13.30
2023-12-14T16:42:03.820Z,13.30
2023-12-14T16:44:37.298Z,13.30
2023-12-14T16:47:10.588Z,13.30
2023-12-14T16:49:43.390Z,13.30
2023-12-14T16:52:12.928Z,13.30
2023-12-14T16:54:41.077Z,13.30
2023-12-14T16:57:08.133Z,13.30
2023-12-14T16:59:38.892Z,13.30
2023-12-14T17:02:11.201Z,13.30
2023-12-14T17:04:41.559Z,13.30
2023-12-14T17:07:08.457Z,13.30
2023-12-14T17:09:39.670Z,13.30
2023-12-14T17:12:09.380Z,13.30
2023-12-14T17:14:41.333Z,13.30
2023-12-14T17:17:08.182Z,13.30
2023-12-14T17:19:40.221Z,13.00
2023-12-14T17:22:07.123Z,13.20
2023-12-14T17:24:36.582Z,13.20
2023-12-14T17:27:03.988Z,13.20
2023-12-14T17:29:33.211Z,13.20
2023-12-14T17:32:00.267Z,13.20
2023-12-14T17:34:27.294Z,13.20
2023-12-14T17:36:54.405Z,13.20
2023-12-14T17:39:21.625Z,13.10
2023-12-14T17:41:48.613Z,13.10
2023-12-14T17:44:15.605Z,13.10
2023-12-14T17:46:47.322Z,13.10
2023-12-14T17:49:14.331Z,13.10
2023-12-14T17:51:44.788Z,13.10
2023-12-14T17:54:12.472Z,13.10
2023-12-14T17:56:41.853Z,13.10
2023-12-14T17:59:13.838Z,13.10
2023-12-14T18:01:48.619Z,13.10
2023-12-14T18:04:15.899Z,13.10
2023-12-14T18:06:50.120Z,13.10
2023-12-14T18:09:18.751Z,13.10
2023-12-14T18:11:50.224Z,13.10
2023-12-14T18:14:17.217Z,13.10
2023-12-14T18:16:48.829Z,13.10
2023-12-14T18:19:15.923Z,13.10
2023-12-14T18:21:46.500Z,12.90
2023-12-14T18:24:13.494Z,13.10
2023-12-14T18:26:42.535Z,13.10
2023-12-14T18:29:09.652Z,13.10
2023-12-14T18:31:36.773Z,13.10
2023-12-14T18:34:11.578Z,13.10
2023-12-14T18:36:38.476Z,13.10
2023-12-14T18:39:07.898Z,13.10
2023-12-14T18:41:39.501Z,13.10
2023-12-14T18:44:11.124Z,13.10
2023-12-14T18:46:38.047Z,13.10
2023-12-14T18:49:07.654Z,13.10
2023-12-14T18:51:38.232Z,13.10
2023-12-14T18:54:11.432Z,13.10
2023-12-14T18:56:38.511Z,13.10
2023-12-14T18:59:07.578Z,13.10
2023-12-14T19:01:37.059Z,13.10
2023-12-14T19:04:06.323Z,13.10
2023-12-14T19:06:33.341Z,13.10
2023-12-14T19:09:00.282Z,13.10
2023-12-14T19:11:29.567Z,13.10
2023-12-14T19:14:01.277Z,13.10
2023-12-14T19:16:33.805Z,13.10
2023-12-14T19:19:01.765Z,13.10
2023-12-14T19:21:28.961Z,13.10
2023-12-14T19:24:02.889Z,13.10
2023-12-14T19:26:32.390Z,13.10
2023-12-14T19:28:59.686Z,13.10
2023-12-14T19:31:31.195Z,13.10
2023-12-14T19:33:58.005Z,13.10
2023-12-14T19:36:27.467Z,12.90
2023-12-14T19:38:54.627Z,13.00
2023-12-14T19:41:24.127Z,13.10
2023-12-14T19:43:51.114Z,13.10
2023-12-14T19:46:18.721Z,13.10
2023-12-14T19:48:45.843Z,13.10
2023-12-14T19:51:12.827Z,13.10
2023-12-14T19:53:44.301Z,13.10
2023-12-14T19:56:11.553Z,13.10
2023-12-14T19:58:43.315Z,13.10
2023-12-14T20:01:15.031Z,13.10
2023-12-14T20:03:42.034Z,13.10
2023-12-14T20:06:11.069Z,13.10
2023-12-14T20:08:43.909Z,13.10
2023-12-14T20:11:22.066Z,13.10
2023-12-14T20:13:49.229Z,13.10
2023-12-14T20:16:16.141Z,13.00
2023-12-14T20:18:43.133Z,13.10
2023-12-14T20:21:12.629Z,13.00
2023-12-14T20:23:44.677Z,13.00
2023-12-14T20:26:21.372Z,13.00
2023-12-14T20:28:54.287Z,13.00
2023-12-14T20:31:21.471Z,13.00
2023-12-14T20:33:48.442Z,13.00
2023-12-14T20:36:15.927Z,12.90
2023-12-14T20:38:45.709Z,12.90
2023-12-14T20:41:14.954Z,12.90
2023-12-14T20:43:44.379Z,12.90
2023-12-14T20:46:13.773Z,12.80
2023-12-14T20:48:41.443Z,12.90
2023-12-14T20:51:10.714Z,12.90
2023-12-14T20:53:38.288Z,12.80
2023-12-14T20:56:05.904Z,12.80
2023-12-14T20:58:39.707Z,12.80
2023-12-14T21:01:09.225Z,12.80
2023-12-14T21:03:40.078Z,12.80
2023-12-14T21:06:08.144Z,12.80
2023-12-14T21:08:35.107Z,12.80
2023-12-14T21:11:04.352Z,12.80
2023-12-14T21:13:31.753Z,12.70
2023-12-14T21:16:03.610Z,12.70
2023-12-14T21:18:33.021Z,12.70
2023-12-14T21:21:00.564Z,12.70
2023-12-14T21:23:27.491Z,12.70
2023-12-14T21:26:09.129Z,12.70
2023-12-14T21:28:39.126Z,12.70
2023-12-14T21:31:08.490Z,12.50
2023-12-14T21:33:35.607Z,12.60
2023-12-14T21:36:05.098Z,12.60
2023-12-14T21:38:33.436Z,12.60
2023-12-14T21:41:00.536Z,12.60
2023-12-14T21:43:27.569Z,12.60
2023-12-14T21:45:56.771Z,12.60
2023-12-14T21:48:23.934Z,12.60
2023-12-14T21:50:50.909Z,12.60
2023-12-14T21:53:17.971Z,12.50
2023-12-14T21:55:44.923Z,12.50
2023-12-14T21:58:11.932Z,12.50
2023-12-14T22:00:41.461Z,12.50
2023-12-14T22:03:08.483Z,12.50
2023-12-14T22:05:37.779Z,12.50
2023-12-14T22:08:07.275Z,12.50
2023-12-14T22:10:34.248Z,12.50
2023-12-14T22:13:01.084Z,12.50
2023-12-14T22:15:27.974Z,12.40
2023-12-14T22:17:57.506Z,12.40
2023-12-14T22:20:27.021Z,12.50
2023-12-14T22:22:53.999Z,12.40
2023-12-14T22:25:23.264Z,12.40
2023-12-14T22:27:50.239Z,12.50
2023-12-14T22:30:17.285Z,12.50
2023-12-14T22:32:46.770Z,12.50
2023-12-14T22:35:13.961Z,12.40
2023-12-14T22:37:45.445Z,12.50
2023-12-14T22:40:13.043Z,12.40
2023-12-14T22:42:40.101Z,12.50
2023-12-14T22:45:07.538Z,12.50
2023-12-14T22:47:34.812Z,12.50
2023-12-14T22:50:06.842Z,12.50
2023-12-14T22:52:33.881Z,12.50
2023-12-14T22:55:03.311Z,12.50
2023-12-14T22:57:34.393Z,12.50
2023-12-14T23:00:03.711Z,12.40
2023-12-14T23:02:30.664Z,12.40
2023-12-14T23:04:57.590Z,12.40
2023-12-14T23:07:24.553Z,12.40
2023-12-14T23:09:54.493Z,12.40
2023-12-14T23:12:24.042Z,12.40
2023-12-14T23:14:50.941Z,12.30
2023-12-14T23:17:21.145Z,12.40
2023-12-14T23:19:51.603Z,12.40
2023-12-14T23:22:23.394Z,12.30
2023-12-14T23:24:55.569Z,12.30
2023-12-14T23:27:22.503Z,12.30
2023-12-14T23:29:49.378Z,12.30
2023-12-14T23:32:18.643Z,12.20
2023-12-14T23:34:50.611Z,12.20
2023-12-14T23:37:20.303Z,12.20
2023-12-14T23:39:49.289Z,12.20
2023-12-14T23:42:16.171Z,12.10
2023-12-14T23:44:43.144Z,12.10
2023-12-14T23:47:13.296Z,12.10
2023-12-14T23:49:40.237Z,12.10
2023-12-14T23:52:07.087Z,12.10
2023-12-14T23:54:36.500Z,12.00
2023-12-14T23:57:06.213Z,12.00
2023-12-14T23:59:35.751Z,12.00
